Boulder City, Nevada Weather observations

Data are for observation ending at time listed.
 Day   Time    Ave.   Ave.  Ave.  Vector   Max.   Stn.    Total    Solar   Ave.  
  of    of     Air    Rel.  Wind   Wind    Wind   Baro.  Precip.   Rad.    Soil  
Year   Day     Temp.  Hum.  Speed  Dir.    Gust   Pres.                    Temp. 
2014   (PST)    F      %     mph   deg.    mph     mb.     in.     W/m2     F   
------------------------------------------------------------------------------
 106   16:10   85.2     9    2.4    14      7.6   924.7    0.00     383    80.8
 106   16:20   84.8     9    3.7    10     10.3   924.7    0.00     350    80.8
 106   16:30   84.3     9    4.1    15      8.1   924.7    0.00     315    80.7
 106   16:40   83.9     9    3.5    13      8.3   924.6    0.00     283    80.7
 106   16:50   83.9     9    3.5    14      8.5   924.5    0.00     246    80.6
 106   17:00   83.6    10    2.6   359      6.1   924.4    0.00     212    80.6
 106   17:10   83.3    10    3.3    11      6.6   924.4    0.00     179    80.6
 106   17:20   83.1    10    2.5     5      5.1   924.3    0.00     142    80.5
 106   17:30   81.9    10    2.5     5      5.6   924.2    0.00     111    80.4
 106   17:40   81.1    10    2.8    13      5.7   924.0    0.00      50    80.3
 106   17:50   80.5    10    2.6    18      4.8   923.9    0.00      23    80.2
 106   18:00   79.9    11    1.6    11      3.2   923.9    0.00      14    80.1
 106   18:10   79.2    11    1.0     6      3.1   923.9    0.00      11    80.1
 106   18:20   78.6    11    0.7   358      1.8   923.9    0.00       5    79.9
 106   18:30   77.9    11    0.3     2      1.4   923.9    0.00       0    79.8
 106   18:40   76.5    12    1.7    91      5.6   923.8    0.00       0    79.8
 106   18:50   76.6    12    2.5   106      5.4   923.9    0.00       0    79.6
 106   19:00   76.4    11    2.1   138      4.3   924.0    0.00       0    79.5
 106   19:10   75.7    12    1.4   250      3.7   924.1    0.00       0    79.4
 106   19:20   74.2    12    2.2   246      3.9   924.2    0.00       0    79.3
 106   19:30   73.5    12    1.9   243      3.1   924.3    0.00       0    79.2
 106   19:40   73.9    12    1.6   245      2.9   924.3    0.00       0    79.1
 106   19:50   73.3    13    2.6   212      4.2   924.5    0.00       0    79.0
 106   20:00   73.2    13    2.0   228      3.4   924.5    0.00       0    78.9
 106   20:10   73.6    12    1.0   237      2.4   924.6    0.00       0    78.7
 106   20:20   72.7    13    2.1   235      3.1   924.7    0.00       0    78.6
 106   20:30   71.3    13    1.5   245      3.0   924.8    0.00       0    78.5
 106   20:40   71.3    13    1.5   253      3.1   924.8    0.00       0    78.3
 106   20:50   71.3    13    2.0   255      3.0   924.9    0.00       0    78.2
 106   21:00   71.3    13    2.4   211      4.0   924.9    0.00       0    78.1
 106   21:10   71.1    14    3.0   211      4.3   925.0    0.00       0    78.0
 106   21:20   70.8    14    3.2   217      4.7   925.1    0.00       0    77.8
 106   21:30   70.5    14    3.9   226      4.7   925.0    0.00       0    77.7
 106   21:40   69.7    14    3.1   214      4.4   925.0    0.00       0    77.6
 106   21:50   68.9    14    2.9   218      3.9   925.0    0.00       0    77.5
 106   22:00   68.7    14    3.1   210      4.0   925.0    0.00       0    77.3
 106   22:10   68.5    14    3.1   212      4.7   925.1    0.00       0    77.2
 106   22:20   68.7    15    3.3   213      4.4   925.2    0.00       0    77.1
 106   22:30   68.5    14    3.1   204      4.1   925.2    0.00       0    77.0
 106   22:40   68.6    14    3.4   210      4.5   925.2    0.00       0    76.9
 106   22:50   68.1    14    3.1   205      4.0   925.3    0.00       0    76.8
 106   23:00   67.7    15    3.0   206      4.1   925.3    0.00       0    76.6
 106   23:10   67.7    15    3.4   207      4.2   925.2    0.00       0    76.5
 106   23:20   67.6    15    3.1   210      4.7   925.2    0.00       0    76.4
 106   23:30   67.9    14    2.8   212      4.0   925.3    0.00       0    76.3
 106   23:40   68.0    15    3.1   211      4.0   925.4    0.00       0    76.2
 106   23:50   68.0    15    3.4   214      4.5   925.6    0.00       0    76.1
 107    0:00   67.6    15    2.2   226      3.0   925.6    0.00       0    76.0
 107    0:10   66.7    16    1.9   235      3.1   925.6    0.00       0    75.8
 107    0:20   66.1    16    1.4   233      2.0   925.6    0.00       0    75.7
 107    0:30   66.3    16    0.7   224      1.8   925.6    0.00       0    75.6
 107    0:40   66.4    16    0.0   234      0.7   925.5    0.00       0    75.5
 107    0:50   66.5    16    0.4   252      1.2   925.5    0.00       0    75.4
 107    1:00   67.1    16    1.9   273      3.3   925.5    0.00       0    75.3
 107    1:10   68.9    14    0.9   346      3.4   925.5    0.00       0    75.2
 107    1:20   69.3    14    0.1    64      1.5   925.6    0.00       0    75.1
 107    1:30   68.6    15    0.1   349      0.7   925.7    0.00       0    75.0
 107    1:40   67.7    16    0.9     9      3.1   925.7    0.00       0    74.9
 107    1:50   67.8    16    0.7     5      2.8   925.7    0.00       0    74.8
 107    2:00   67.5    17    0.0   345      0.5   925.8    0.00       0    74.7
 107    2:10   66.6    18    0.4    11      1.2   925.8    0.00       0    74.6
 107    2:20   65.6    18    0.1     0      0.7   925.8    0.00       0    74.5
 107    2:30   64.8    19    0.1    22      1.2   925.8    0.00       0    74.4
 107    2:40   64.2    20    0.4   205      1.8   925.9    0.00       0    74.3
 107    2:50   64.0    20    0.4   243      1.8   926.0    0.00       0    74.2
 107    3:00   63.2    21    0.0    24      0.9   926.0    0.00       0    74.1
 107    3:10   63.5    21    0.1    15      0.8   926.1    0.00       0    74.0
 107    3:20   63.3    22    0.7     6      2.3   926.2    0.00       0    73.9
 107    3:30   63.1    22    1.5    10      4.3   926.2    0.00       0    73.8
 107    3:40   63.8    22    0.6     8      1.8   926.2    0.00       0    73.7
 107    3:50   63.2    23    0.8    48      1.8   926.3    0.00       0    73.6
 107    4:00   64.9    22    1.4   359      3.9   926.3    0.00       0    73.5
 107    4:10   64.8    22    0.2    22      1.2   926.3    0.00       0    73.4
 107    4:20   63.4    23    0.0     0      0.0   926.4    0.00       0    73.3
 107    4:30   62.3    24    0.7   356      1.5   926.4    0.00       0    73.2
 107    4:40   62.2    24    0.6     5      3.0   926.5    0.00       0    73.1
 107    4:50   63.0    23    0.7    46      2.2   926.6    0.00       0    73.0
 107    5:00   63.1    23    0.8    91      2.3   926.7    0.00       3    72.9
 107    5:10   63.7    23    0.8   358      3.1   926.9    0.00       4    72.8
 107    5:20   63.8    23    0.4     8      1.6   927.1    0.00      11    72.7
 107    5:30   63.3    23    0.4    63      2.9   927.2    0.00      40    72.6
 107    5:40   64.7    23    1.2    33      3.1   927.3    0.00      74    72.5
 107    5:50   67.6    21    0.9    19      2.8   927.4    0.00     110    72.4
 107    6:00   69.6    20    1.6     1      5.2   927.7    0.00     144    72.3
 107    6:10   71.0    19    2.3    12      5.2   928.0    0.00     179    72.2
 107    6:20   72.2    19    1.5    23      3.9   928.4    0.00     217    72.2
 107    6:30   72.4    18    2.6     9      6.9   928.7    0.00     254    72.1
 107    6:40   73.0    17    2.9    11      6.6   928.9    0.00     292    72.0
 107    6:50   73.1    17    3.1     7      6.9   929.1    0.00     330    71.9
 107    7:00   73.4    16    3.9    13      8.3   929.3    0.00     367    71.9
 107    7:10   73.8    16    4.1     9      8.5   929.5    0.00     405    71.8
 107    7:20   74.3    16    3.4    13      7.7   929.6    0.00     442    71.8
 107    7:30   74.7    16    3.6    23      8.6   929.7    0.00     478    71.8
 107    7:40   74.4    16    4.2    22      8.0   929.8    0.00     514    71.7
 107    7:50   74.6    16    4.0    21      8.0   929.9    0.00     549    71.8
 107    8:00   74.6    17    4.5    24      8.5   930.0    0.00     582    71.8
 107    8:10   74.8    16    4.5    18      9.1   930.1    0.00     617    71.9
 107    8:20   75.7    16    3.8    20      7.5   930.2    0.00     647    72.0
 107    8:30   76.2    16    3.2    31      7.2   930.3    0.00     675    72.0
 107    8:40   75.7    16    4.3    22      8.0   930.5    0.00     704    72.1
 107    8:50   76.6    15    3.5    22      6.8   930.6    0.00     729    72.3
 107    9:00   76.4    15    4.0    28      7.9   930.6    0.00     754    72.4
 107    9:10   76.0    15    3.5    14      7.5   930.7    0.00     777    72.5
 107    9:20   77.2    14    2.8    17      6.2   930.6    0.00     790    72.7
 107    9:30   78.0    14    1.8    36      5.2   930.5    0.00     640    72.9
 107    9:40   78.7    14    2.2    23      6.0   930.6    0.00     787    73.1
 107    9:50   78.8    14    2.0    35      5.7   930.5    0.00     233    73.3
 107   10:00   79.2    13    2.0    34      6.3   930.5    0.00     138    73.6
 107   10:10   79.6    14    2.7    21      8.0   930.5    0.00     278    73.9
 107   10:20   81.1    13    4.0   105      9.6   930.5    0.00     819    74.2
 107   10:30   81.6    12    3.2    82     14.0   930.4    0.00     785    74.5
 107   10:40   81.8    12    4.8    98     11.6   930.4    0.00     883    74.8
 107   10:50   82.3    12    4.1   100     11.8   930.4    0.00     906    75.1
 107   11:00   84.0    12    4.2   107      9.9   930.3    0.00     863    75.5
 107   11:10   83.8    12    4.9   168     10.9   930.2    0.00     923    75.8
 107   11:20   83.6    12    3.5   131     10.8   930.1    0.00     869    76.2
 107   11:30   84.0    11    3.4   195     11.2   929.9    0.00     940    76.6
 107   11:40   84.7    11    3.8   150     11.8   929.8    0.00     939    77.0
 107   11:50   85.4    11    5.3   203     10.5   929.7    0.00     938    77.4
 107   12:00   84.9    11    2.7   105      9.1   929.5    0.00     936    77.8
 107   12:10   85.6    11    4.2   188     10.3   929.3    0.00     934    78.2
 107   12:20   86.5    10    5.6   133     13.4   929.2    0.00     915    78.6
 107   12:30   85.9    10    4.5   186     11.5   929.1    0.00     892    79.0
 107   12:40   86.9    10    3.8   156     14.4   929.0    0.00     907    79.4
 107   12:50   87.6    10    3.7   184     10.2   928.9    0.00     901    79.8
 107   13:00   88.3    10    4.8   150     14.0   928.8    0.00     880    80.2
 107   13:10   88.7    10    6.8   154     16.1   928.7    0.00     850    80.5
 107   13:20   89.3    10    5.4   139     14.3   928.6    0.00     819    80.9
 107   13:30   88.9    10    7.2   157     15.9   928.6    0.00     807    81.3
 107   13:40   88.9    10    6.0   146     15.3   928.5    0.00     772    81.6
 107   13:50   88.6    10    8.4   157     16.8   928.3    0.00     725    81.9
 107   14:00   88.4    10    8.9   167     17.5   928.1    0.00     697    82.2
 107   14:10   88.3    10    9.1   162     20.8   928.0    0.00     729    82.5
 107   14:20   87.7    10   11.5   151     24.0   927.8    0.00     706    82.7
 107   14:30   87.6    10   10.7   174     26.2   927.7    0.00     576    82.9
 107   14:40   87.7    10    9.5   154     19.3   927.6    0.00     498    83.1
 107   14:50   87.3    10    8.8   144     21.3   927.5    0.00     590    83.2
 107   15:00   88.5     9    8.5   156     20.2   927.4    0.00     676    83.3
 107   15:10   88.7     9   10.6   164     20.5   927.3    0.00     622    83.4
 107   15:20   88.1     9    9.2   168     20.8   927.3    0.00     585    83.6
 107   15:30   88.3     9    7.3   161     22.0   927.3    0.00     545    83.6
 107   15:40   88.4     9    7.8   142     21.7   927.2    0.00     453    83.6
 107   15:50   88.0     9    6.5   157     18.8   927.2    0.00     399    83.6
 107   16:00   87.4     9    8.5   144     21.6   927.1    0.00     331    83.6

Return to Boulder City, Nevada graphs page.


Western Regional Climate Center,wrcc@dri.edu